createdAt,value
2022-09-19T00:01:26.060Z,86.96
2022-09-19T00:03:56.498Z,86.72
2022-09-19T00:06:27.520Z,86.50
2022-09-19T00:08:56.715Z,86.74
2022-09-19T00:11:26.081Z,87.05
2022-09-19T00:13:56.948Z,87.77
2022-09-19T00:16:29.318Z,87.82
2022-09-19T00:18:59.855Z,87.70
2022-09-19T00:21:30.686Z,87.84
2022-09-19T00:24:16.501Z,87.70
2022-09-19T00:26:46.335Z,88.06
2022-09-19T00:29:16.286Z,87.52
2022-09-19T00:31:46.434Z,86.29
2022-09-19T00:34:17.173Z,86.19
2022-09-19T00:36:46.406Z,86.85
2022-09-19T00:39:15.968Z,86.83
2022-09-19T00:41:45.129Z,87.02
2022-09-19T00:44:46.449Z,87.11
2022-09-19T00:47:18.294Z,86.38
2022-09-19T00:49:49.346Z,86.65
2022-09-19T00:52:20.517Z,87.74
2022-09-19T00:54:50.666Z,87.25
2022-09-19T00:57:19.144Z,87.17
2022-09-19T00:59:49.679Z,87.44
2022-09-19T01:02:22.562Z,88.05
2022-09-19T01:04:50.986Z,87.52
2022-09-19T01:07:25.732Z,87.49
2022-09-19T01:09:57.080Z,87.34
2022-09-19T01:12:34.014Z,87.69
2022-09-19T01:15:13.194Z,88.15
2022-09-19T01:17:47.839Z,87.69
2022-09-19T01:20:53.708Z,88.42
2022-09-19T01:23:47.708Z,88.57
2022-09-19T01:26:34.008Z,87.95
2022-09-19T01:29:08.460Z,88.13
2022-09-19T01:31:37.730Z,88.20
2022-09-19T01:34:08.644Z,88.86
2022-09-19T01:36:38.683Z,88.08
2022-09-19T01:39:08.972Z,88.86
2022-09-19T01:41:37.396Z,88.27
2022-09-19T01:44:17.511Z,89.03
2022-09-19T01:46:54.707Z,88.80
2022-09-19T01:49:29.700Z,89.10
2022-09-19T01:52:05.083Z,88.87
2022-09-19T01:54:39.877Z,88.21
2022-09-19T01:57:19.225Z,87.58
2022-09-19T01:59:56.645Z,87.81
2022-09-19T02:02:35.086Z,86.49
2022-09-19T02:05:08.328Z,86.70
2022-09-19T02:07:45.180Z,86.92
2022-09-19T02:10:18.857Z,87.32
2022-09-19T02:12:51.440Z,86.57
2022-09-19T02:15:24.148Z,86.18
2022-09-19T02:17:57.484Z,85.14
2022-09-19T02:20:28.221Z,86.25
2022-09-19T02:23:00.224Z,85.87
2022-09-19T02:25:32.137Z,86.21
2022-09-19T02:28:02.300Z,86.38
2022-09-19T02:30:31.731Z,85.37
2022-09-19T02:33:00.708Z,85.79
2022-09-19T02:35:36.056Z,85.56
2022-09-19T02:38:09.813Z,86.23
2022-09-19T02:40:46.200Z,85.98
2022-09-19T02:43:17.673Z,86.14
2022-09-19T02:45:48.422Z,86.50
2022-09-19T02:48:22.235Z,86.26
2022-09-19T02:50:59.474Z,86.12
2022-09-19T02:53:30.501Z,86.40
2022-09-19T02:56:01.883Z,86.13
2022-09-19T02:58:33.253Z,86.65
2022-09-19T03:01:06.265Z,87.12
2022-09-19T03:03:55.001Z,87.05
2022-09-19T03:06:27.145Z,86.82
2022-09-19T03:08:55.907Z,87.45
2022-09-19T03:11:26.793Z,86.98
2022-09-19T03:13:59.685Z,86.80
2022-09-19T03:16:35.544Z,86.76
2022-09-19T03:19:04.707Z,87.53
2022-09-19T03:21:33.031Z,87.09
2022-09-19T03:24:01.236Z,87.14
2022-09-19T03:26:31.717Z,86.22
2022-09-19T03:29:01.174Z,86.36
2022-09-19T03:31:31.247Z,87.66
2022-09-19T03:33:59.259Z,86.65
2022-09-19T03:36:30.153Z,86.85
2022-09-19T03:39:03.450Z,86.33
2022-09-19T03:41:33.752Z,87.30
2022-09-19T03:44:02.926Z,86.07
2022-09-19T03:46:33.282Z,86.24
2022-09-19T03:49:03.536Z,86.24
2022-09-19T03:51:32.418Z,87.06
2022-09-19T03:54:00.586Z,86.97
2022-09-19T03:56:28.610Z,86.92
2022-09-19T03:58:56.491Z,87.11
2022-09-19T04:01:24.806Z,86.24
2022-09-19T04:03:54.275Z,86.98
2022-09-19T04:06:22.181Z,86.72
2022-09-19T04:08:50.774Z,86.46
2022-09-19T04:11:18.576Z,86.56
2022-09-19T04:13:50.143Z,86.36
2022-09-19T04:16:18.699Z,86.68
2022-09-19T04:18:48.826Z,85.87
2022-09-19T04:21:18.462Z,85.43
2022-09-19T04:23:46.661Z,86.23
2022-09-19T04:26:15.003Z,86.21
2022-09-19T04:28:43.394Z,85.59
2022-09-19T04:31:13.547Z,85.34
2022-09-19T04:33:42.119Z,86.09
2022-09-19T04:36:10.446Z,85.77
2022-09-19T04:38:39.706Z,85.82
2022-09-19T04:41:08.155Z,86.08
2022-09-19T04:43:37.366Z,86.64
2022-09-19T04:46:07.562Z,86.59
2022-09-19T04:48:35.686Z,85.91
2022-09-19T04:51:07.085Z,86.25
2022-09-19T04:53:37.682Z,86.33
2022-09-19T04:56:07.640Z,86.31
2022-09-19T04:58:36.142Z,86.22
2022-09-19T05:01:04.354Z,85.95
2022-09-19T05:03:32.667Z,86.32
2022-09-19T05:06:00.762Z,85.80
2022-09-19T05:08:30.419Z,86.05
2022-09-19T05:11:00.158Z,86.25
2022-09-19T05:13:31.312Z,86.67
2022-09-19T05:16:01.528Z,86.91
2022-09-19T05:18:30.479Z,86.30
2022-09-19T05:20:58.337Z,86.47
2022-09-19T05:23:27.036Z,86.26
2022-09-19T05:25:55.427Z,86.62
2022-09-19T05:28:28.622Z,86.16
2022-09-19T05:30:58.452Z,85.91
2022-09-19T05:33:27.365Z,85.65
2022-09-19T05:35:56.987Z,85.69
2022-09-19T05:38:25.204Z,86.20
2022-09-19T05:40:54.442Z,85.33
2022-09-19T05:43:23.097Z,85.22
2022-09-19T05:45:51.316Z,85.67
2022-09-19T05:48:21.145Z,85.46
2022-09-19T05:50:49.854Z,85.04
2022-09-19T05:53:36.065Z,85.76
2022-09-19T05:56:08.351Z,85.60
2022-09-19T05:58:38.864Z,85.24
2022-09-19T06:01:07.511Z,85.63
2022-09-19T06:03:37.188Z,84.63
2022-09-19T06:06:10.932Z,85.33
2022-09-19T06:08:39.220Z,85.93
2022-09-19T06:11:07.466Z,85.12
2022-09-19T06:13:56.051Z,84.81
2022-09-19T06:16:24.332Z,84.83
2022-09-19T06:18:53.731Z,84.44
2022-09-19T06:21:21.717Z,84.69
2022-09-19T06:23:49.731Z,83.53
2022-09-19T06:26:17.947Z,83.81
2022-09-19T06:28:47.589Z,83.96
2022-09-19T06:31:15.945Z,84.04
2022-09-19T06:33:44.725Z,83.96
2022-09-19T06:36:14.086Z,83.78
2022-09-19T06:38:43.975Z,83.97
2022-09-19T06:41:13.689Z,83.98
2022-09-19T06:43:41.615Z,83.80
2022-09-19T06:46:11.228Z,84.13
2022-09-19T06:48:40.895Z,83.88
2022-09-19T06:51:10.054Z,83.38
2022-09-19T06:53:42.633Z,83.20
2022-09-19T06:56:15.120Z,83.87
2022-09-19T06:58:47.448Z,82.82
2022-09-19T07:01:19.215Z,82.99
2022-09-19T07:03:51.362Z,82.41
2022-09-19T07:06:23.850Z,83.22
2022-09-19T07:08:55.963Z,83.35
2022-09-19T07:11:26.790Z,83.03
2022-09-19T07:13:55.388Z,82.78
2022-09-19T07:16:23.338Z,83.37
2022-09-19T07:18:51.271Z,83.78
2022-09-19T07:21:22.366Z,83.67
2022-09-19T07:23:55.432Z,83.47
2022-09-19T07:26:23.968Z,83.97
2022-09-19T07:28:55.598Z,84.07
2022-09-19T07:31:24.546Z,83.77
2022-09-19T07:33:52.867Z,84.12
2022-09-19T07:36:22.501Z,83.24
2022-09-19T07:38:51.192Z,83.88
2022-09-19T07:41:21.099Z,84.34
2022-09-19T07:43:50.730Z,83.89
2022-09-19T07:46:18.880Z,83.75
2022-09-19T07:48:49.172Z,82.81
2022-09-19T07:51:17.156Z,83.68
2022-09-19T07:53:45.164Z,84.01
2022-09-19T07:56:13.448Z,83.38
2022-09-19T07:58:42.693Z,83.61
2022-09-19T08:01:10.913Z,82.31
2022-09-19T08:03:38.991Z,82.31
2022-09-19T08:06:07.499Z,82.76
2022-09-19T08:08:37.179Z,82.06
2022-09-19T08:11:06.477Z,82.31
2022-09-19T08:13:34.409Z,82.65
2022-09-19T08:16:04.103Z,82.39
2022-09-19T08:18:33.144Z,82.86
2022-09-19T08:21:01.084Z,82.37
2022-09-19T08:23:30.484Z,81.74
2022-09-19T08:25:58.601Z,82.42
2022-09-19T08:28:26.717Z,81.51
2022-09-19T08:30:56.515Z,81.54
2022-09-19T08:33:25.872Z,81.51
2022-09-19T08:35:55.046Z,82.12
2022-09-19T08:38:23.040Z,82.59
2022-09-19T08:41:13.773Z,81.38
2022-09-19T08:43:47.561Z,82.02
2022-09-19T08:46:17.589Z,81.78
2022-09-19T08:48:54.549Z,81.85
2022-09-19T08:51:27.200Z,81.51
2022-09-19T08:53:58.908Z,82.89
2022-09-19T08:56:27.800Z,81.74
2022-09-19T08:59:02.481Z,80.77
2022-09-19T09:01:32.838Z,80.51
2022-09-19T09:04:13.862Z,81.87
2022-09-19T09:06:48.558Z,81.71
2022-09-19T09:09:23.605Z,81.16
2022-09-19T09:11:59.593Z,81.06
2022-09-19T09:14:32.796Z,80.97
2022-09-19T09:17:10.744Z,80.32
2022-09-19T09:19:52.629Z,79.88
2022-09-19T09:22:25.936Z,79.88
2022-09-19T09:25:10.269Z,79.86
2022-09-19T09:27:46.674Z,78.85
2022-09-19T09:30:17.816Z,79.00
2022-09-19T09:32:49.540Z,77.88
2022-09-19T09:35:27.943Z,78.87
2022-09-19T09:38:03.195Z,78.85
2022-09-19T09:40:58.576Z,77.89
2022-09-19T09:43:28.032Z,77.64
2022-09-19T09:45:56.176Z,77.68
2022-09-19T09:48:28.188Z,76.60
2022-09-19T09:51:06.397Z,76.55
2022-09-19T09:53:50.102Z,76.43
2022-09-19T09:56:23.199Z,76.71
2022-09-19T09:59:08.209Z,76.18
2022-09-19T10:02:01.703Z,75.97
2022-09-19T10:04:33.078Z,75.94
2022-09-19T10:07:12.263Z,75.50
2022-09-19T10:09:43.236Z,75.57
2022-09-19T10:15:18.593Z,74.66
2022-09-19T10:17:49.227Z,73.56
2022-09-19T10:20:20.191Z,74.12
2022-09-19T10:22:49.664Z,74.10
2022-09-19T10:25:20.310Z,74.24
2022-09-19T10:27:51.049Z,73.33
2022-09-19T10:30:20.966Z,74.75
2022-09-19T10:32:50.238Z,74.37
2022-09-19T10:35:30.426Z,73.58
2022-09-19T10:38:04.445Z,73.57
2022-09-19T10:40:33.024Z,73.44
2022-09-19T10:43:02.511Z,73.20
2022-09-19T10:45:34.732Z,72.99
2022-09-19T10:48:10.215Z,73.71
2022-09-19T10:50:45.009Z,72.94
2022-09-19T10:53:19.994Z,72.90
2022-09-19T10:55:48.562Z,73.11
2022-09-19T10:58:19.982Z,73.88
2022-09-19T11:00:51.664Z,73.34
2022-09-19T11:03:25.007Z,71.79
2022-09-19T11:06:07.670Z,72.31
2022-09-19T11:08:45.197Z,72.48
2022-09-19T11:11:23.973Z,67.98
2022-09-19T11:14:08.957Z,68.64
2022-09-19T11:16:41.223Z,68.95
2022-09-19T11:19:20.221Z,69.81
2022-09-19T11:21:58.242Z,70.96
2022-09-19T11:24:38.054Z,70.63
2022-09-19T11:27:36.260Z,69.41
2022-09-19T11:30:12.437Z,70.29
2022-09-19T11:33:03.588Z,70.53
2022-09-19T11:35:34.200Z,70.50
2022-09-19T11:41:09.659Z,72.06
2022-09-19T11:43:48.135Z,72.68
2022-09-19T11:46:24.475Z,73.16
2022-09-19T11:49:15.828Z,72.47
2022-09-19T11:51:51.259Z,69.11
2022-09-19T11:54:29.889Z,68.98
2022-09-19T11:57:11.154Z,69.58
2022-09-19T12:00:10.533Z,70.24
2022-09-19T12:02:49.926Z,71.13
2022-09-19T12:05:24.706Z,69.83
2022-09-19T12:08:01.462Z,70.85
2022-09-19T12:10:33.121Z,69.91
2022-09-19T12:13:06.753Z,70.48
2022-09-19T12:15:37.525Z,69.32
2022-09-19T12:18:13.128Z,69.80
2022-09-19T12:20:43.313Z,68.82
2022-09-19T12:23:33.057Z,68.80
2022-09-19T12:26:01.989Z,69.50
2022-09-19T12:28:35.460Z,69.46
2022-09-19T12:31:06.338Z,69.71
2022-09-19T12:33:41.674Z,69.17
2022-09-19T12:36:15.340Z,67.98
2022-09-19T12:38:46.957Z,68.40
2022-09-19T12:41:23.473Z,68.79
2022-09-19T12:43:59.174Z,69.39
2022-09-19T12:46:38.760Z,72.36
2022-09-19T12:49:16.072Z,71.80
2022-09-19T12:51:51.834Z,72.51
2022-09-19T12:54:22.685Z,71.64
2022-09-19T12:56:55.352Z,70.23
2022-09-19T12:59:25.934Z,70.75
2022-09-19T13:01:57.482Z,69.36
2022-09-19T13:04:34.029Z,68.75
2022-09-19T13:07:08.265Z,70.28
2022-09-19T13:09:40.331Z,69.09
2022-09-19T13:12:12.600Z,69.59
2022-09-19T13:14:47.083Z,70.52
2022-09-19T13:17:34.171Z,72.19
2022-09-19T13:20:20.236Z,73.76
2022-09-19T13:23:10.270Z,75.20
2022-09-19T13:25:39.738Z,74.66
2022-09-19T13:28:29.354Z,74.89
2022-09-19T13:31:14.185Z,75.47
2022-09-19T13:33:46.502Z,74.48
2022-09-19T13:36:16.337Z,74.80
2022-09-19T13:38:48.157Z,73.63
2022-09-19T13:41:24.158Z,71.79
2022-09-19T13:43:59.067Z,72.34
2022-09-19T13:46:32.035Z,71.11
2022-09-19T13:49:03.472Z,70.65
2022-09-19T13:51:38.616Z,71.00
2022-09-19T13:54:45.769Z,70.35
2022-09-19T13:57:19.576Z,69.90
2022-09-19T13:59:52.671Z,70.26
2022-09-19T14:02:25.438Z,71.02
2022-09-19T14:05:11.795Z,69.70
2022-09-19T14:10:39.119Z,72.55
2022-09-19T14:13:34.172Z,75.95
2022-09-19T14:16:09.796Z,77.70
2022-09-19T14:18:54.513Z,78.41
2022-09-19T14:21:59.372Z,79.72
2022-09-19T14:24:54.266Z,80.40
2022-09-19T14:27:46.752Z,80.45
2022-09-19T14:30:28.357Z,79.57
2022-09-19T14:33:18.714Z,78.08
2022-09-19T14:35:49.277Z,78.22
2022-09-19T14:38:35.177Z,76.71
2022-09-19T14:41:07.508Z,76.11
2022-09-19T14:44:20.968Z,77.10
2022-09-19T14:46:54.775Z,77.50
2022-09-19T14:49:28.316Z,76.43
2022-09-19T14:52:01.961Z,76.13
2022-09-19T14:54:41.312Z,76.24
2022-09-19T14:57:16.336Z,74.47
2022-09-19T14:59:45.617Z,75.24
2022-09-19T15:02:20.937Z,71.50
2022-09-19T15:04:52.444Z,73.09
2022-09-19T15:07:27.583Z,71.75
2022-09-19T15:09:55.760Z,69.07
2022-09-19T15:12:25.507Z,68.78
2022-09-19T15:14:57.606Z,68.08
2022-09-19T15:17:27.836Z,67.27
2022-09-19T15:19:58.725Z,67.69
2022-09-19T15:22:32.965Z,70.19
2022-09-19T15:25:05.880Z,68.90
2022-09-19T15:27:35.761Z,68.22
2022-09-19T15:30:11.519Z,69.67
2022-09-19T15:32:40.964Z,69.88
2022-09-19T15:35:14.277Z,68.88
2022-09-19T15:37:45.502Z,69.11
2022-09-19T15:40:16.586Z,69.75
2022-09-19T15:42:45.662Z,70.02
2022-09-19T15:45:36.320Z,69.56
2022-09-19T15:48:09.824Z,71.62
2022-09-19T15:50:41.410Z,71.50
2022-09-19T15:53:17.129Z,70.60
2022-09-19T15:55:47.141Z,70.06
2022-09-19T15:58:22.237Z,68.51
2022-09-19T16:00:53.849Z,68.27
2022-09-19T16:03:24.180Z,67.36
2022-09-19T16:06:29.865Z,67.08
2022-09-19T16:09:02.523Z,67.77
2022-09-19T16:11:32.341Z,67.07
2022-09-19T16:14:09.525Z,67.71
2022-09-19T16:16:39.604Z,67.57
2022-09-19T16:19:07.857Z,68.32
2022-09-19T16:21:37.739Z,69.23
2022-09-19T16:24:10.880Z,69.39
2022-09-19T16:26:38.863Z,70.68
2022-09-19T16:29:07.404Z,69.89
2022-09-19T16:31:36.737Z,71.10
2022-09-19T16:34:08.763Z,71.01
2022-09-19T16:36:43.059Z,72.05
2022-09-19T16:39:20.596Z,71.81
2022-09-19T16:42:03.014Z,71.34
2022-09-19T16:44:38.076Z,71.43
2022-09-19T16:47:19.801Z,72.12
2022-09-19T16:49:49.080Z,72.27
2022-09-19T16:52:21.250Z,72.94
2022-09-19T16:54:51.189Z,73.44
2022-09-19T16:57:20.077Z,72.94
2022-09-19T16:59:49.205Z,73.11
2022-09-19T17:02:22.875Z,73.30
2022-09-19T17:04:50.780Z,73.77
2022-09-19T17:07:20.659Z,74.19
2022-09-19T17:09:50.850Z,74.49
2022-09-19T17:12:20.090Z,74.41
2022-09-19T17:14:48.986Z,74.82
2022-09-19T17:17:18.106Z,74.48
2022-09-19T17:19:47.219Z,75.12
2022-09-19T17:22:18.623Z,75.21
2022-09-19T17:24:47.285Z,75.15
2022-09-19T17:27:17.487Z,75.45
2022-09-19T17:29:47.342Z,74.86
2022-09-19T17:32:15.434Z,75.62
2022-09-19T17:34:46.198Z,76.03
2022-09-19T17:37:14.234Z,75.87
2022-09-19T17:39:42.561Z,76.00
2022-09-19T17:42:14.284Z,76.24
2022-09-19T17:44:46.009Z,77.01
2022-09-19T17:47:33.628Z,76.79
2022-09-19T17:50:01.790Z,76.91
2022-09-19T17:52:30.039Z,77.46
2022-09-19T17:54:58.361Z,77.81
2022-09-19T17:57:26.534Z,77.74
2022-09-19T18:00:00.571Z,78.29
2022-09-19T18:02:46.029Z,79.32
2022-09-19T18:05:16.851Z,79.21
2022-09-19T18:07:45.255Z,79.68
2022-09-19T18:10:13.037Z,79.59
2022-09-19T18:12:41.376Z,80.01
2022-09-19T18:15:15.360Z,80.19
2022-09-19T18:17:43.268Z,80.12
2022-09-19T18:20:12.782Z,80.77
2022-09-19T18:22:40.889Z,80.06
2022-09-19T18:25:15.003Z,80.63
2022-09-19T18:27:44.701Z,80.75
2022-09-19T18:30:16.488Z,80.76
2022-09-19T18:32:45.350Z,80.66
2022-09-19T18:35:14.870Z,80.09
2022-09-19T18:37:46.133Z,80.81
2022-09-19T18:40:16.234Z,81.07
2022-09-19T18:42:44.357Z,81.23
2022-09-19T18:45:14.376Z,81.11
2022-09-19T18:47:42.509Z,81.27
2022-09-19T18:50:12.232Z,81.49
2022-09-19T18:52:40.148Z,81.90
2022-09-19T18:55:08.764Z,81.46
2022-09-19T18:57:36.640Z,81.87
2022-09-19T19:00:05.680Z,81.71
2022-09-19T19:02:36.522Z,81.61
2022-09-19T19:05:04.558Z,81.30
2022-09-19T19:07:32.759Z,81.55
2022-09-19T19:10:00.633Z,81.80
2022-09-19T19:12:38.517Z,82.31
2022-09-19T19:15:10.366Z,81.66
2022-09-19T19:17:39.712Z,81.67
2022-09-19T19:20:08.341Z,81.79
2022-09-19T19:22:36.197Z,81.90
2022-09-19T19:25:04.358Z,81.56
2022-09-19T19:27:32.252Z,81.66
2022-09-19T19:30:00.288Z,81.82
2022-09-19T19:32:28.250Z,81.75
2022-09-19T19:34:57.527Z,82.13
2022-09-19T19:37:26.531Z,82.06
2022-09-19T19:39:54.446Z,82.29
2022-09-19T19:42:23.125Z,81.75
2022-09-19T19:44:53.040Z,82.15
2022-09-19T19:47:21.161Z,82.11
2022-09-19T19:49:50.808Z,81.67
2022-09-19T19:52:20.486Z,81.93
2022-09-19T19:54:48.371Z,82.16
2022-09-19T19:57:16.456Z,81.41
2022-09-19T19:59:44.364Z,81.95
2022-09-19T20:02:15.196Z,82.06
2022-09-19T20:04:43.099Z,81.74
2022-09-19T20:07:12.277Z,82.11
2022-09-19T20:09:42.980Z,81.96
2022-09-19T20:12:11.261Z,82.41
2022-09-19T20:14:40.720Z,82.96
2022-09-19T20:17:08.549Z,83.11
2022-09-19T20:19:37.307Z,83.48
2022-09-19T20:22:05.159Z,83.75
2022-09-19T20:24:35.447Z,83.45
2022-09-19T20:27:08.258Z,83.39
2022-09-19T20:29:36.369Z,83.68
2022-09-19T20:32:04.738Z,83.09
2022-09-19T20:34:32.863Z,82.30
2022-09-19T20:37:01.016Z,82.52
2022-09-19T20:39:29.177Z,82.95
2022-09-19T20:41:57.211Z,83.84
2022-09-19T20:44:26.721Z,84.44
2022-09-19T20:46:54.783Z,84.31
2022-09-19T20:49:26.025Z,84.93
2022-09-19T20:51:54.031Z,85.08
2022-09-19T20:54:23.283Z,85.27
2022-09-19T20:56:51.613Z,85.65
2022-09-19T20:59:20.641Z,85.59
2022-09-19T21:01:51.687Z,85.57
2022-09-19T21:04:21.999Z,85.97
2022-09-19T21:06:50.664Z,85.12
2022-09-19T21:09:18.621Z,85.62
2022-09-19T21:11:46.827Z,84.98
2022-09-19T21:14:14.871Z,85.00
2022-09-19T21:16:42.863Z,85.53
2022-09-19T21:19:12.437Z,86.19
2022-09-19T21:21:40.404Z,86.03
2022-09-19T21:24:08.431Z,86.26
2022-09-19T21:26:37.459Z,86.83
2022-09-19T21:29:07.555Z,86.91
2022-09-19T21:31:36.863Z,87.98
2022-09-19T21:34:06.424Z,86.92
2022-09-19T21:36:37.730Z,86.61
2022-09-19T21:39:06.215Z,86.98
2022-09-19T21:41:36.036Z,86.80
2022-09-19T21:44:06.302Z,86.63
2022-09-19T21:46:36.981Z,85.29
2022-09-19T21:49:05.228Z,85.42
2022-09-19T21:51:36.858Z,85.64
2022-09-19T21:54:06.519Z,85.11
2022-09-19T21:56:35.416Z,84.98
2022-09-19T21:59:04.471Z,85.69
2022-09-19T22:01:33.919Z,85.25
2022-09-19T22:04:02.356Z,85.93
2022-09-19T22:06:31.614Z,86.16
2022-09-19T22:09:01.897Z,86.67
2022-09-19T22:11:31.276Z,86.46
2022-09-19T22:14:00.490Z,86.37
2022-09-19T22:16:29.660Z,86.51
2022-09-19T22:18:58.287Z,86.76
2022-09-19T22:21:26.464Z,86.89
2022-09-19T22:23:55.942Z,86.87
2022-09-19T22:26:27.991Z,87.03
2022-09-19T22:28:56.848Z,86.50
2022-09-19T22:31:26.362Z,86.62
2022-09-19T22:33:55.330Z,86.56
2022-09-19T22:36:24.886Z,86.37
2022-09-19T22:38:52.884Z,86.40
2022-09-19T22:41:21.293Z,86.83
2022-09-19T22:43:52.660Z,86.25
2022-09-19T22:46:24.823Z,86.72
2022-09-19T22:48:53.331Z,86.68
2022-09-19T22:51:23.009Z,87.22
2022-09-19T22:53:51.210Z,86.94
2022-09-19T22:56:22.345Z,87.02
2022-09-19T22:58:52.388Z,87.51
2022-09-19T23:01:21.856Z,87.25
2022-09-19T23:03:49.883Z,87.44
2022-09-19T23:06:19.910Z,86.43
2022-09-19T23:08:48.754Z,86.49
2022-09-19T23:11:17.217Z,86.48
2022-09-19T23:13:48.426Z,87.08
2022-09-19T23:16:20.366Z,87.06
2022-09-19T23:18:51.860Z,86.97
2022-09-19T23:21:20.443Z,87.00
2022-09-19T23:23:49.640Z,86.61
2022-09-19T23:26:17.749Z,86.67
2022-09-19T23:28:45.939Z,86.83
2022-09-19T23:31:14.088Z,86.76
2022-09-19T23:33:43.997Z,86.82
2022-09-19T23:36:14.815Z,86.39
2022-09-19T23:38:42.818Z,86.35
2022-09-19T23:41:11.715Z,86.46
2022-09-19T23:43:40.503Z,86.66
2022-09-19T23:46:09.108Z,86.89
2022-09-19T23:48:38.139Z,87.32
2022-09-19T23:51:08.519Z,87.34
2022-09-19T23:53:38.428Z,87.71
2022-09-19T23:56:09.448Z,87.97
2022-09-19T23:58:37.440Z,88.19
